createdAt,value
2018-08-16T00:00:19.693Z,15.70
2018-08-16T00:02:47.590Z,15.70
2018-08-16T00:05:15.919Z,15.60
2018-08-16T00:07:43.860Z,15.50
2018-08-16T00:10:13.783Z,15.50
2018-08-16T00:12:42.896Z,15.50
2018-08-16T00:15:10.742Z,15.50
2018-08-16T00:17:39.271Z,15.50
2018-08-16T00:20:07.203Z,15.40
2018-08-16T00:22:35.078Z,15.40
2018-08-16T00:25:03.115Z,15.40
2018-08-16T00:27:30.972Z,15.40
2018-08-16T00:29:58.852Z,15.30
2018-08-16T00:32:26.750Z,15.30
2018-08-16T00:34:55.322Z,15.30
2018-08-16T00:37:23.464Z,15.30
2018-08-16T00:39:51.328Z,15.20
2018-08-16T00:42:19.162Z,15.20
2018-08-16T00:44:47.397Z,15.10
2018-08-16T00:47:15.318Z,15.10
2018-08-16T00:49:43.232Z,15.10
2018-08-16T00:52:11.089Z,15.10
2018-08-16T00:54:38.959Z,15.10
2018-08-16T00:57:06.879Z,15.10
2018-08-16T00:59:34.794Z,15.10
2018-08-16T01:02:02.714Z,15.00
2018-08-16T01:04:30.587Z,15.00
2018-08-16T01:06:58.539Z,15.00
2018-08-16T01:09:26.332Z,15.00
2018-08-16T01:11:54.291Z,14.90
2018-08-16T01:14:22.131Z,15.00
2018-08-16T01:16:50.015Z,14.90
2018-08-16T01:19:17.816Z,14.90
2018-08-16T01:21:45.717Z,14.80
2018-08-16T01:24:13.612Z,14.80
2018-08-16T01:26:41.498Z,14.80
2018-08-16T01:29:09.244Z,14.80
2018-08-16T01:31:37.120Z,14.70
2018-08-16T01:34:04.944Z,14.70
2018-08-16T01:36:32.685Z,14.70
2018-08-16T01:39:00.540Z,14.70
2018-08-16T01:41:28.395Z,14.70
2018-08-16T01:43:56.264Z,14.70
2018-08-16T01:46:24.139Z,14.70
2018-08-16T01:48:51.993Z,14.80
2018-08-16T01:51:19.856Z,14.80
2018-08-16T01:53:47.671Z,14.80
2018-08-16T01:56:15.573Z,14.80
2018-08-16T01:58:43.461Z,14.80
2018-08-16T02:01:11.413Z,14.80
2018-08-16T02:03:39.209Z,14.80
2018-08-16T02:06:07.172Z,14.80
2018-08-16T02:08:35.073Z,14.80
2018-08-16T02:11:02.911Z,14.80
2018-08-16T02:13:30.707Z,14.80
2018-08-16T02:15:58.588Z,14.90
2018-08-16T02:18:26.477Z,14.90
2018-08-16T02:20:54.312Z,14.90
2018-08-16T02:23:22.152Z,14.90
2018-08-16T02:25:50.024Z,14.90
2018-08-16T02:28:17.892Z,14.90
2018-08-16T02:30:45.824Z,15.00
2018-08-16T02:33:13.613Z,15.00
2018-08-16T02:35:41.495Z,15.00
2018-08-16T02:38:09.363Z,15.00
2018-08-16T02:40:40.700Z,14.90
2018-08-16T02:43:08.525Z,14.90
2018-08-16T02:45:36.393Z,14.90
2018-08-16T02:48:04.255Z,14.90
2018-08-16T02:50:32.114Z,14.90
2018-08-16T02:52:59.992Z,14.90
2018-08-16T02:55:27.843Z,14.90
2018-08-16T02:57:55.752Z,14.90
2018-08-16T03:00:23.608Z,14.90
2018-08-16T03:02:51.415Z,15.00
2018-08-16T03:05:19.272Z,15.00
2018-08-16T03:07:47.169Z,15.10
2018-08-16T03:10:15.001Z,15.10
2018-08-16T03:12:42.860Z,15.20
2018-08-16T03:15:10.829Z,15.20
2018-08-16T03:17:39.159Z,15.30
2018-08-16T03:20:07.348Z,15.40
2018-08-16T03:22:35.141Z,15.40
2018-08-16T03:25:02.970Z,15.50
2018-08-16T03:27:30.777Z,15.50
2018-08-16T03:29:58.620Z,15.50
2018-08-16T03:32:26.608Z,15.60
2018-08-16T03:34:54.488Z,15.60
2018-08-16T03:37:22.409Z,15.70
2018-08-16T03:39:50.263Z,15.70
2018-08-16T03:42:18.067Z,15.70
2018-08-16T03:44:45.989Z,15.70
2018-08-16T03:47:13.891Z,15.70
2018-08-16T03:49:41.808Z,15.60
2018-08-16T03:52:09.648Z,15.60
2018-08-16T03:54:37.501Z,15.60
2018-08-16T03:57:05.341Z,15.60
2018-08-16T03:59:33.136Z,15.60
2018-08-16T04:02:01.033Z,15.50
2018-08-16T04:04:28.877Z,15.50
2018-08-16T04:06:56.744Z,15.50
2018-08-16T04:09:24.621Z,15.50
2018-08-16T04:11:52.508Z,15.50
2018-08-16T04:14:20.344Z,15.50
2018-08-16T04:16:48.190Z,15.50
2018-08-16T04:19:15.988Z,15.50
2018-08-16T04:21:43.821Z,15.60
2018-08-16T04:24:11.640Z,15.60
2018-08-16T04:26:39.516Z,15.60
2018-08-16T04:29:07.638Z,15.70
2018-08-16T04:31:35.396Z,15.70
2018-08-16T04:34:03.281Z,15.80
2018-08-16T04:36:31.139Z,15.80
2018-08-16T04:38:59.041Z,15.90
2018-08-16T04:41:26.918Z,16.00
2018-08-16T04:43:54.773Z,16.00
2018-08-16T04:46:22.564Z,16.10
2018-08-16T04:48:50.385Z,16.20
2018-08-16T04:51:18.252Z,16.30
2018-08-16T04:53:46.095Z,16.40
2018-08-16T04:56:13.917Z,16.50
2018-08-16T04:58:41.822Z,16.60
2018-08-16T05:01:09.704Z,16.70
2018-08-16T05:03:37.523Z,16.80
2018-08-16T05:06:05.569Z,16.90
2018-08-16T05:08:33.396Z,17.00
2018-08-16T05:11:01.299Z,17.10
2018-08-16T05:13:29.135Z,17.20
2018-08-16T05:15:56.944Z,17.30
2018-08-16T05:18:24.800Z,17.40
2018-08-16T05:20:52.668Z,17.50
2018-08-16T05:23:20.560Z,17.60
2018-08-16T05:25:48.533Z,17.70
2018-08-16T05:28:16.312Z,17.80
2018-08-16T05:30:44.221Z,18.30
2018-08-16T05:33:12.048Z,19.20
2018-08-16T05:35:39.926Z,20.50
2018-08-16T05:38:07.740Z,21.80
2018-08-16T05:40:35.583Z,23.00
2018-08-16T05:43:03.532Z,24.00
2018-08-16T05:45:31.341Z,24.80
2018-08-16T05:47:59.237Z,25.60
2018-08-16T05:50:27.040Z,26.30
2018-08-16T05:52:54.925Z,26.80
2018-08-16T05:55:22.752Z,27.30
2018-08-16T05:57:50.596Z,27.70
2018-08-16T06:00:18.484Z,28.10
2018-08-16T06:02:46.373Z,27.40
2018-08-16T06:05:14.163Z,27.70
2018-08-16T06:07:42.036Z,28.20
2018-08-16T06:10:10.025Z,28.60
2018-08-16T06:12:38.127Z,29.30
2018-08-16T06:15:07.547Z,29.80
2018-08-16T06:17:35.409Z,30.20
2018-08-16T06:20:04.932Z,30.50
2018-08-16T06:22:32.748Z,30.70
2018-08-16T06:25:00.667Z,30.90
2018-08-16T06:27:28.612Z,31.20
2018-08-16T06:29:56.785Z,31.50
2018-08-16T06:32:24.681Z,31.90
2018-08-16T06:34:52.533Z,32.10
2018-08-16T06:37:20.425Z,32.30
2018-08-16T06:39:48.351Z,32.50
2018-08-16T06:42:16.314Z,32.60
2018-08-16T06:44:44.200Z,32.60
2018-08-16T06:47:14.625Z,32.60
2018-08-16T06:49:42.845Z,32.50
2018-08-16T06:52:10.717Z,32.50
2018-08-16T06:54:38.636Z,32.40
2018-08-16T06:57:06.659Z,32.20
2018-08-16T06:59:34.642Z,31.80
2018-08-16T07:02:02.661Z,31.20
2018-08-16T07:04:30.476Z,30.60
2018-08-16T07:06:58.316Z,29.90
2018-08-16T07:09:26.180Z,29.60
2018-08-16T07:11:54.049Z,30.00
2018-08-16T07:14:21.859Z,30.60
2018-08-16T07:16:49.745Z,31.10
2018-08-16T07:19:17.653Z,31.40
2018-08-16T07:21:45.548Z,31.60
2018-08-16T07:24:13.451Z,31.70
2018-08-16T07:26:41.357Z,31.80
2018-08-16T07:29:09.220Z,31.90
2018-08-16T07:31:37.093Z,32.10
2018-08-16T07:34:05.095Z,32.20
2018-08-16T07:36:33.041Z,32.30
2018-08-16T07:39:00.829Z,32.10
2018-08-16T07:41:28.700Z,31.40
2018-08-16T07:43:56.593Z,30.80
2018-08-16T07:46:24.522Z,30.50
2018-08-16T07:48:52.796Z,30.50
2018-08-16T07:51:20.905Z,30.80
2018-08-16T07:53:48.523Z,30.80
2018-08-16T07:56:16.423Z,30.90
2018-08-16T07:58:44.328Z,31.10
2018-08-16T08:01:12.191Z,31.50
2018-08-16T08:03:40.062Z,31.70
2018-08-16T08:06:07.953Z,32.00
2018-08-16T08:08:35.867Z,32.20
2018-08-16T08:11:03.741Z,32.50
2018-08-16T08:13:31.720Z,32.60
2018-08-16T08:15:59.634Z,32.70
2018-08-16T08:18:27.807Z,32.90
2018-08-16T08:20:55.727Z,33.00
2018-08-16T08:23:23.632Z,33.10
2018-08-16T08:25:51.597Z,33.10
2018-08-16T08:28:19.512Z,33.20
2018-08-16T08:30:47.408Z,33.50
2018-08-16T08:33:15.264Z,33.50
2018-08-16T08:35:54.371Z,33.60
2018-08-16T08:38:22.271Z,33.70
2018-08-16T08:40:50.160Z,33.90
2018-08-16T08:43:35.328Z,34.20
2018-08-16T08:46:03.157Z,34.40
2018-08-16T08:48:31.554Z,34.60
2018-08-16T08:50:59.455Z,34.80
2018-08-16T08:54:51.576Z,35.00
2018-08-16T08:57:37.193Z,35.10
2018-08-16T09:00:07.840Z,35.20
2018-08-16T09:02:35.800Z,35.30
2018-08-16T09:05:05.003Z,35.40
2018-08-16T09:07:32.952Z,35.30
2018-08-16T09:11:16.278Z,35.30
2018-08-16T09:14:05.757Z,35.40
2018-08-16T09:16:41.401Z,35.40
2018-08-16T09:19:10.109Z,35.50
2018-08-16T09:21:38.001Z,35.60
2018-08-16T09:24:05.969Z,35.90
2018-08-16T09:26:41.114Z,36.10
2018-08-16T09:31:29.427Z,36.20
2018-08-16T09:34:21.700Z,36.20
2018-08-16T09:36:49.573Z,36.40
2018-08-16T09:39:17.457Z,36.40
2018-08-16T09:41:45.326Z,36.30
2018-08-16T09:44:13.192Z,36.40
2018-08-16T09:47:05.636Z,36.50
2018-08-16T09:49:35.579Z,36.50
2018-08-16T09:52:04.764Z,36.50
2018-08-16T09:54:32.675Z,36.80
2018-08-16T09:57:01.777Z,37.00
2018-08-16T09:59:29.704Z,37.20
2018-08-16T10:01:57.573Z,37.20
2018-08-16T10:04:25.536Z,37.20
2018-08-16T10:06:53.456Z,37.20
2018-08-16T10:09:24.471Z,37.00
2018-08-16T10:11:52.615Z,37.00
2018-08-16T10:14:20.849Z,37.20
2018-08-16T10:16:48.716Z,37.30
2018-08-16T10:19:16.553Z,37.20
2018-08-16T10:21:44.424Z,37.20
2018-08-16T10:24:12.389Z,37.30
2018-08-16T10:26:40.273Z,37.50
2018-08-16T10:29:09.717Z,37.80
2018-08-16T10:31:37.557Z,37.90
2018-08-16T10:34:05.420Z,37.80
2018-08-16T10:36:33.335Z,37.80
2018-08-16T10:39:01.169Z,37.90
2018-08-16T10:41:29.461Z,38.20
2018-08-16T10:43:57.384Z,38.20
2018-08-16T10:46:25.253Z,38.30
2018-08-16T10:48:53.169Z,38.40
2018-08-16T10:51:21.068Z,38.30
2018-08-16T10:53:48.956Z,38.30
2018-08-16T10:56:16.858Z,38.30
2018-08-16T10:58:44.761Z,38.40
2018-08-16T11:01:12.677Z,38.40
2018-08-16T11:03:40.601Z,38.20
2018-08-16T11:06:08.492Z,38.20
2018-08-16T11:08:36.384Z,37.90
2018-08-16T11:11:04.460Z,37.80
2018-08-16T11:13:32.320Z,37.90
2018-08-16T11:16:00.131Z,38.00
2018-08-16T11:18:27.928Z,38.10
2018-08-16T11:20:55.800Z,38.10
2018-08-16T11:23:23.700Z,38.20
2018-08-16T11:25:51.608Z,38.20
2018-08-16T11:28:19.463Z,38.40
2018-08-16T11:30:47.325Z,38.30
2018-08-16T11:33:15.220Z,38.10
2018-08-16T11:35:43.099Z,38.10
2018-08-16T11:38:10.928Z,38.20
2018-08-16T11:40:38.854Z,38.40
2018-08-16T11:43:06.617Z,38.50
2018-08-16T11:45:34.419Z,38.40
2018-08-16T11:48:02.232Z,38.30
2018-08-16T11:50:30.184Z,38.30
2018-08-16T11:52:58.037Z,38.50
2018-08-16T11:55:25.920Z,38.40
2018-08-16T11:57:53.828Z,38.40
2018-08-16T12:00:21.752Z,38.40
2018-08-16T12:02:49.640Z,38.50
2018-08-16T12:05:17.529Z,38.60
2018-08-16T12:07:45.449Z,38.70
2018-08-16T12:10:13.269Z,38.50
2018-08-16T12:12:41.134Z,38.00
2018-08-16T12:18:00.304Z,37.50
2018-08-16T12:20:27.844Z,37.30
2018-08-16T12:22:55.332Z,37.40
2018-08-16T12:25:22.830Z,37.70
2018-08-16T12:27:50.328Z,38.10
2018-08-16T12:30:17.835Z,38.40
2018-08-16T12:32:45.323Z,38.60
2018-08-16T12:35:12.840Z,38.80
2018-08-16T12:37:40.393Z,38.90
2018-08-16T12:40:07.875Z,38.70
2018-08-16T12:42:35.375Z,38.70
2018-08-16T12:45:03.232Z,38.90
2018-08-16T12:47:30.758Z,38.90
2018-08-16T12:49:58.277Z,39.10
2018-08-16T12:52:25.788Z,39.30
2018-08-16T12:54:53.283Z,39.40
2018-08-16T12:57:20.795Z,39.40
2018-08-16T12:59:48.320Z,39.40
2018-08-16T13:02:15.831Z,39.40
2018-08-16T13:04:43.336Z,39.40
2018-08-16T13:07:10.844Z,39.40
2018-08-16T13:09:38.347Z,39.30
2018-08-16T13:12:05.872Z,39.20
2018-08-16T13:14:33.373Z,39.20
2018-08-16T13:17:00.891Z,39.10
2018-08-16T13:19:28.383Z,39.10
2018-08-16T13:21:55.905Z,39.00
2018-08-16T13:24:23.436Z,39.00
2018-08-16T13:26:50.958Z,39.20
2018-08-16T13:29:18.663Z,39.10
2018-08-16T13:31:46.179Z,39.10
2018-08-16T13:34:13.681Z,39.20
2018-08-16T13:36:41.196Z,39.10
2018-08-16T13:39:11.463Z,39.10
2018-08-16T13:41:39.140Z,39.00
2018-08-16T13:44:06.791Z,39.00
2018-08-16T13:46:34.290Z,38.90
2018-08-16T13:49:01.835Z,38.70
2018-08-16T13:51:29.357Z,38.80
2018-08-16T13:53:56.867Z,38.90
2018-08-16T13:56:24.376Z,38.90
2018-08-16T13:58:51.889Z,39.00
2018-08-16T14:01:19.402Z,39.00
2018-08-16T14:03:46.903Z,39.20
2018-08-16T14:06:14.415Z,39.20
2018-08-16T14:08:41.919Z,39.30
2018-08-16T14:11:09.431Z,39.40
2018-08-16T14:13:36.923Z,39.50
2018-08-16T14:16:04.423Z,39.30
2018-08-16T14:18:31.960Z,39.20
2018-08-16T14:20:59.464Z,39.20
2018-08-16T14:23:33.691Z,39.10
2018-08-16T14:26:01.264Z,39.00
2018-08-16T14:28:28.902Z,39.00
2018-08-16T14:30:56.411Z,39.00
2018-08-16T14:33:23.914Z,39.10
2018-08-16T14:35:51.417Z,38.90
2018-08-16T14:38:18.936Z,38.80
2018-08-16T14:40:46.451Z,38.80
2018-08-16T14:43:13.951Z,38.70
2018-08-16T14:45:41.443Z,38.70
2018-08-16T14:48:09.604Z,38.60
2018-08-16T14:50:38.180Z,38.60
2018-08-16T14:53:05.796Z,38.50
2018-08-16T14:55:33.304Z,38.40
2018-08-16T14:58:00.815Z,38.30
2018-08-16T15:00:28.348Z,38.20
2018-08-16T15:02:55.866Z,38.20
2018-08-16T15:05:23.388Z,38.20
2018-08-16T15:07:50.900Z,38.10
2018-08-16T15:10:18.391Z,38.10
2018-08-16T15:12:46.034Z,38.10
2018-08-16T15:15:13.548Z,38.10
2018-08-16T15:17:41.052Z,38.10
2018-08-16T15:20:08.559Z,38.10
2018-08-16T15:22:36.059Z,38.00
2018-08-16T15:25:04.446Z,37.90
2018-08-16T15:27:31.952Z,37.90
2018-08-16T15:29:59.459Z,37.80
2018-08-16T15:32:26.963Z,37.70
2018-08-16T15:34:54.468Z,37.60
2018-08-16T15:37:22.003Z,37.50
2018-08-16T15:39:49.483Z,37.30
2018-08-16T15:42:16.995Z,37.20
2018-08-16T15:44:44.502Z,37.10
2018-08-16T15:47:11.995Z,37.00
2018-08-16T15:49:39.516Z,36.90
2018-08-16T15:52:07.019Z,36.90
2018-08-16T15:54:34.523Z,36.80
2018-08-16T15:57:02.038Z,36.60
2018-08-16T15:59:29.612Z,36.50
2018-08-16T16:01:57.135Z,36.30
2018-08-16T16:04:24.642Z,36.20
2018-08-16T16:06:52.175Z,36.20
2018-08-16T16:09:19.680Z,36.00
2018-08-16T16:11:47.202Z,35.90
2018-08-16T16:14:14.711Z,35.70
2018-08-16T16:16:42.212Z,35.50
2018-08-16T16:19:09.724Z,35.20
2018-08-16T16:21:37.218Z,35.00
2018-08-16T16:24:04.783Z,34.90
2018-08-16T16:26:32.294Z,34.70
2018-08-16T16:28:59.803Z,34.60
2018-08-16T16:31:27.317Z,34.40
2018-08-16T16:33:54.824Z,34.20
2018-08-16T16:36:22.332Z,34.00
2018-08-16T16:38:49.838Z,33.80
2018-08-16T16:41:17.384Z,33.60
2018-08-16T16:43:44.896Z,33.30
2018-08-16T16:46:12.388Z,33.10
2018-08-16T16:48:39.903Z,32.90
2018-08-16T16:51:07.450Z,32.70
2018-08-16T16:53:34.971Z,32.50
2018-08-16T16:56:02.476Z,32.30
2018-08-16T16:58:29.995Z,32.10
2018-08-16T17:00:57.496Z,31.90
2018-08-16T17:03:24.987Z,31.80
2018-08-16T17:05:52.488Z,31.60
2018-08-16T17:08:20.008Z,31.50
2018-08-16T17:10:47.521Z,31.40
2018-08-16T17:13:15.063Z,31.20
2018-08-16T17:15:42.579Z,31.10
2018-08-16T17:18:10.079Z,31.00
2018-08-16T17:20:37.598Z,30.80
2018-08-16T17:23:05.175Z,30.70
2018-08-16T17:25:32.660Z,30.50
2018-08-16T17:28:00.159Z,30.40
2018-08-16T17:30:27.667Z,30.30
2018-08-16T17:32:55.408Z,30.10
2018-08-16T17:35:23.068Z,30.00
2018-08-16T17:37:50.587Z,29.90
2018-08-16T17:40:18.091Z,29.70
2018-08-16T17:42:45.608Z,29.60
2018-08-16T17:45:13.202Z,29.50
2018-08-16T17:47:40.760Z,29.30
2018-08-16T17:50:08.319Z,29.20
2018-08-16T17:52:35.815Z,29.00
2018-08-16T17:55:03.367Z,28.90
2018-08-16T17:57:30.874Z,28.70
2018-08-16T17:59:58.405Z,28.50
2018-08-16T18:02:25.913Z,28.40
2018-08-16T18:04:53.422Z,28.20
2018-08-16T18:07:20.935Z,28.10
2018-08-16T18:09:48.447Z,28.00
2018-08-16T18:12:15.963Z,27.80
2018-08-16T18:14:43.479Z,27.60
2018-08-16T18:17:10.976Z,27.50
2018-08-16T18:19:38.491Z,27.30
2018-08-16T18:22:06.531Z,27.10
2018-08-16T18:24:34.043Z,27.00
2018-08-16T18:27:01.547Z,26.80
2018-08-16T18:29:29.051Z,26.70
2018-08-16T18:31:56.546Z,26.50
2018-08-16T18:34:24.065Z,26.40
2018-08-16T18:36:51.658Z,26.20
2018-08-16T18:39:19.087Z,26.10
2018-08-16T18:41:46.604Z,25.90
2018-08-16T18:44:14.119Z,25.80
2018-08-16T18:46:41.614Z,25.60
2018-08-16T18:49:09.144Z,25.50
2018-08-16T18:51:36.682Z,25.30
2018-08-16T18:54:04.216Z,25.20
2018-08-16T18:56:31.732Z,25.10
2018-08-16T18:58:59.251Z,25.00
2018-08-16T19:01:26.768Z,24.80
2018-08-16T19:03:54.283Z,24.80
2018-08-16T19:06:21.786Z,24.70
2018-08-16T19:08:49.308Z,24.50
2018-08-16T19:11:16.850Z,24.50
2018-08-16T19:13:44.359Z,24.40
2018-08-16T19:16:11.863Z,24.30
2018-08-16T19:18:39.404Z,24.20
2018-08-16T19:21:06.911Z,24.10
2018-08-16T19:23:34.420Z,24.10
2018-08-16T19:26:02.036Z,23.90
2018-08-16T19:28:29.556Z,23.90
2018-08-16T19:30:57.055Z,23.80
2018-08-16T19:33:24.562Z,23.70
2018-08-16T19:35:52.115Z,23.60
2018-08-16T19:38:19.573Z,23.50
2018-08-16T19:40:47.083Z,23.50
2018-08-16T19:43:14.595Z,23.40
2018-08-16T19:45:42.115Z,23.40
2018-08-16T19:48:09.753Z,23.30
2018-08-16T19:50:37.151Z,23.20
2018-08-16T19:53:04.672Z,23.20
2018-08-16T19:55:32.199Z,23.10
2018-08-16T19:57:59.724Z,23.00
2018-08-16T20:00:27.256Z,23.00
2018-08-16T20:02:54.790Z,23.00
2018-08-16T20:05:22.260Z,23.00
2018-08-16T20:07:49.767Z,22.90
2018-08-16T20:10:17.287Z,22.90
2018-08-16T20:12:44.795Z,22.90
2018-08-16T20:15:12.336Z,22.90
2018-08-16T20:17:39.844Z,22.90
2018-08-16T20:20:07.858Z,22.90
2018-08-16T20:22:35.363Z,22.80
2018-08-16T20:25:03.143Z,22.80
2018-08-16T20:27:30.642Z,22.70
2018-08-16T20:29:58.155Z,22.60
2018-08-16T20:32:25.654Z,22.60
2018-08-16T20:34:53.163Z,22.50
2018-08-16T20:37:20.662Z,22.50
2018-08-16T20:39:48.196Z,22.50
2018-08-16T20:42:15.717Z,22.50
2018-08-16T20:44:43.240Z,22.50
2018-08-16T20:47:10.751Z,22.50
2018-08-16T20:49:38.264Z,22.50
2018-08-16T20:52:05.764Z,22.50
2018-08-16T20:54:33.275Z,22.40
2018-08-16T20:57:00.776Z,22.40
2018-08-16T20:59:28.288Z,22.40
2018-08-16T21:01:55.785Z,22.40
2018-08-16T21:04:23.300Z,22.30
2018-08-16T21:06:50.804Z,22.30
2018-08-16T21:09:18.306Z,22.30
2018-08-16T21:11:45.815Z,22.30
2018-08-16T21:14:13.316Z,22.30
2018-08-16T21:16:40.819Z,22.30
2018-08-16T21:19:08.315Z,22.30
2018-08-16T21:21:35.848Z,22.30
2018-08-16T21:24:03.352Z,22.30
2018-08-16T21:26:30.842Z,22.30
2018-08-16T21:28:58.359Z,22.30
2018-08-16T21:31:25.870Z,22.20
2018-08-16T21:33:53.623Z,22.20
2018-08-16T21:36:21.140Z,22.20
2018-08-16T21:38:48.647Z,22.20
2018-08-16T21:41:16.163Z,22.20
2018-08-16T21:43:43.672Z,22.20
2018-08-16T21:46:11.185Z,22.10
2018-08-16T21:48:38.679Z,22.00
2018-08-16T21:51:06.344Z,22.00
2018-08-16T21:53:34.107Z,22.00
2018-08-16T21:56:01.636Z,22.00
2018-08-16T21:58:29.135Z,22.10
2018-08-16T22:01:01.834Z,22.10
2018-08-16T22:03:29.666Z,22.00
2018-08-16T22:06:02.841Z,22.00
2018-08-16T22:08:48.252Z,21.90
2018-08-16T22:11:15.819Z,21.90
2018-08-16T22:13:43.325Z,21.90
2018-08-16T22:16:11.051Z,21.90
2018-08-16T22:18:38.683Z,21.80
2018-08-16T22:21:06.359Z,21.90
2018-08-16T22:23:33.859Z,21.90
2018-08-16T22:26:01.421Z,21.80
2018-08-16T22:28:28.895Z,21.80
2018-08-16T22:30:56.800Z,21.80
2018-08-16T22:33:24.314Z,21.60
2018-08-16T22:35:51.833Z,21.60
2018-08-16T22:38:19.335Z,21.60
2018-08-16T22:40:46.831Z,21.60
2018-08-16T22:43:14.348Z,21.50
2018-08-16T22:45:41.870Z,21.50
2018-08-16T22:48:09.367Z,21.40
2018-08-16T22:50:37.070Z,21.40
2018-08-16T22:53:04.956Z,21.30
2018-08-16T22:55:33.012Z,21.30
2018-08-16T22:58:00.519Z,21.20
2018-08-16T23:00:28.045Z,21.20
2018-08-16T23:02:55.566Z,21.20
2018-08-16T23:05:23.079Z,21.20
2018-08-16T23:07:50.578Z,21.10
2018-08-16T23:10:18.371Z,21.10
2018-08-16T23:12:45.885Z,21.00
2018-08-16T23:15:13.402Z,20.90
2018-08-16T23:17:40.916Z,20.90
2018-08-16T23:20:09.015Z,20.80
2018-08-16T23:22:36.560Z,20.80
2018-08-16T23:25:04.867Z,20.70
2018-08-16T23:27:32.372Z,20.70
2018-08-16T23:29:59.904Z,20.60
2018-08-16T23:32:27.454Z,20.50
2018-08-16T23:34:55.107Z,20.50
2018-08-16T23:37:22.619Z,20.40
2018-08-16T23:39:50.132Z,20.40
2018-08-16T23:42:17.731Z,20.30
2018-08-16T23:44:45.640Z,20.20
2018-08-16T23:47:13.149Z,20.20
2018-08-16T23:49:40.638Z,20.20
2018-08-16T23:52:08.176Z,20.10
2018-08-16T23:54:35.675Z,20.10
2018-08-16T23:57:03.199Z,20.10
2018-08-16T23:59:30.704Z,20.10
